createdAt,value
2018-09-04T00:01:28.958Z,16.80
2018-09-04T00:03:57.019Z,16.80
2018-09-04T00:06:25.101Z,16.80
2018-09-04T00:08:53.175Z,16.70
2018-09-04T00:11:21.247Z,16.70
2018-09-04T00:13:49.312Z,16.60
2018-09-04T00:16:17.500Z,16.60
2018-09-04T00:18:45.592Z,16.50
2018-09-04T00:21:13.699Z,16.40
2018-09-04T00:23:41.751Z,16.50
2018-09-04T00:26:09.823Z,16.40
2018-09-04T00:28:37.869Z,16.40
2018-09-04T00:31:05.928Z,16.40
2018-09-04T00:33:33.995Z,16.40
2018-09-04T00:36:02.086Z,16.40
2018-09-04T00:38:30.153Z,16.40
2018-09-04T00:40:58.231Z,16.40
2018-09-04T00:43:26.918Z,16.30
2018-09-04T00:45:54.975Z,16.30
2018-09-04T00:48:23.065Z,16.30
2018-09-04T00:50:51.835Z,16.30
2018-09-04T00:53:20.140Z,16.20
2018-09-04T00:55:48.810Z,16.20
2018-09-04T00:58:16.871Z,16.10
2018-09-04T01:00:44.967Z,16.10
2018-09-04T01:03:13.027Z,16.10
2018-09-04T01:05:41.083Z,16.10
2018-09-04T01:08:09.148Z,16.00
2018-09-04T01:10:37.196Z,16.00
2018-09-04T01:13:05.283Z,16.00
2018-09-04T01:15:33.477Z,16.00
2018-09-04T01:18:01.563Z,15.90
2018-09-04T01:20:29.606Z,15.90
2018-09-04T01:22:57.667Z,15.90
2018-09-04T01:25:25.725Z,15.90
2018-09-04T01:27:53.802Z,15.90
2018-09-04T01:30:21.862Z,15.80
2018-09-04T01:32:49.936Z,15.80
2018-09-04T01:35:17.987Z,15.80
2018-09-04T01:37:46.045Z,15.80
2018-09-04T01:40:14.123Z,15.70
2018-09-04T01:42:42.194Z,15.70
2018-09-04T01:45:10.263Z,15.80
2018-09-04T01:47:38.326Z,15.80
2018-09-04T01:50:06.373Z,15.70
2018-09-04T01:52:34.438Z,15.70
2018-09-04T01:55:02.491Z,15.70
2018-09-04T01:57:30.564Z,15.60
2018-09-04T01:59:58.682Z,15.60
2018-09-04T02:02:26.750Z,15.60
2018-09-04T02:04:54.816Z,15.60
2018-09-04T02:07:22.896Z,15.70
2018-09-04T02:09:50.985Z,15.70
2018-09-04T02:12:19.054Z,15.70
2018-09-04T02:14:47.131Z,15.70
2018-09-04T02:17:15.358Z,15.70
2018-09-04T02:19:43.458Z,15.80
2018-09-04T02:22:11.541Z,15.80
2018-09-04T02:24:39.606Z,15.70
2018-09-04T02:27:07.671Z,15.70
2018-09-04T02:29:35.738Z,15.70
2018-09-04T02:32:03.787Z,15.70
2018-09-04T02:34:31.858Z,15.70
2018-09-04T02:36:59.929Z,15.60
2018-09-04T02:39:28.006Z,15.60
2018-09-04T02:41:56.069Z,15.60
2018-09-04T02:44:24.162Z,15.60
2018-09-04T02:46:52.227Z,15.60
2018-09-04T02:49:20.285Z,15.60
2018-09-04T02:51:48.327Z,15.50
2018-09-04T02:54:16.385Z,15.50
2018-09-04T02:56:44.471Z,15.50
2018-09-04T02:59:12.518Z,15.50
2018-09-04T03:01:40.578Z,15.50
2018-09-04T03:04:08.646Z,15.50
2018-09-04T03:06:36.719Z,15.50
2018-09-04T03:09:06.034Z,15.50
2018-09-04T03:11:34.097Z,15.40
2018-09-04T03:14:02.277Z,15.40
2018-09-04T03:16:30.286Z,15.40
2018-09-04T03:18:58.387Z,15.40
2018-09-04T03:21:26.465Z,15.40
2018-09-04T03:23:54.523Z,15.30
2018-09-04T03:26:22.574Z,15.40
2018-09-04T03:28:50.623Z,15.30
2018-09-04T03:31:18.996Z,15.30
2018-09-04T03:33:47.087Z,15.30
2018-09-04T03:36:15.159Z,15.20
2018-09-04T03:38:43.207Z,15.30
2018-09-04T03:41:11.290Z,15.30
2018-09-04T03:43:39.364Z,15.30
2018-09-04T03:46:07.425Z,15.20
2018-09-04T03:48:35.510Z,15.20
2018-09-04T03:51:03.562Z,15.20
2018-09-04T03:53:31.638Z,15.20
2018-09-04T03:55:59.690Z,15.10
2018-09-04T03:58:27.763Z,15.10
2018-09-04T04:00:55.826Z,15.10
2018-09-04T04:03:23.907Z,15.10
2018-09-04T04:05:51.970Z,15.10
2018-09-04T04:08:20.036Z,15.10
2018-09-04T04:10:48.102Z,15.10
2018-09-04T04:13:16.184Z,15.00
2018-09-04T04:15:44.271Z,15.00
2018-09-04T04:18:12.346Z,14.90
2018-09-04T04:20:44.685Z,14.90
2018-09-04T04:23:12.726Z,14.90
2018-09-04T04:25:40.815Z,14.90
2018-09-04T04:28:08.887Z,14.80
2018-09-04T04:30:36.957Z,14.80
2018-09-04T04:33:05.022Z,14.80
2018-09-04T04:35:33.108Z,14.70
2018-09-04T04:38:01.174Z,14.70
2018-09-04T04:40:29.234Z,14.60
2018-09-04T04:42:57.290Z,14.60
2018-09-04T04:45:25.358Z,14.60
2018-09-04T04:47:53.452Z,14.70
2018-09-04T04:50:21.490Z,14.80
2018-09-04T04:52:49.551Z,14.80
2018-09-04T04:55:17.619Z,14.80
2018-09-04T04:57:45.705Z,14.90
2018-09-04T05:00:13.814Z,15.00
2018-09-04T05:02:41.845Z,15.10
2018-09-04T05:05:09.916Z,15.10
2018-09-04T05:07:37.993Z,15.10
2018-09-04T05:10:06.646Z,15.20
2018-09-04T05:12:34.689Z,15.30
2018-09-04T05:15:02.759Z,15.30
2018-09-04T05:17:30.824Z,15.40
2018-09-04T05:19:58.951Z,15.40
2018-09-04T05:22:27.045Z,15.50
2018-09-04T05:24:55.106Z,15.60
2018-09-04T05:27:23.158Z,15.70
2018-09-04T05:29:51.214Z,15.80
2018-09-04T05:32:25.059Z,15.90
2018-09-04T05:34:53.128Z,16.00
2018-09-04T05:37:21.198Z,16.10
2018-09-04T05:39:49.540Z,16.20
2018-09-04T05:42:22.991Z,16.30
2018-09-04T05:44:51.237Z,16.50
2018-09-04T05:47:19.334Z,16.80
2018-09-04T05:49:47.432Z,17.10
2018-09-04T05:52:15.611Z,17.40
2018-09-04T05:54:43.743Z,17.70
2018-09-04T05:57:11.835Z,17.90
2018-09-04T05:59:39.926Z,17.90
2018-09-04T06:02:08.068Z,18.20
2018-09-04T06:04:36.198Z,18.40
2018-09-04T06:07:04.378Z,18.80
2018-09-04T06:09:32.453Z,19.00
2018-09-04T06:12:00.641Z,19.40
2018-09-04T06:14:29.974Z,19.50
2018-09-04T06:16:58.791Z,19.70
2018-09-04T06:19:26.886Z,20.00
2018-09-04T06:21:54.977Z,20.00
2018-09-04T06:24:23.975Z,20.30
2018-09-04T06:26:52.136Z,20.80
2018-09-04T06:29:20.258Z,21.20
2018-09-04T06:31:49.082Z,20.90
2018-09-04T06:34:17.168Z,20.50
2018-09-04T06:36:45.422Z,20.50
2018-09-04T06:39:13.527Z,20.70
2018-09-04T06:41:41.664Z,21.10
2018-09-04T06:44:09.840Z,21.60
2018-09-04T06:46:38.003Z,21.80
2018-09-04T06:49:06.084Z,21.60
2018-09-04T06:51:34.252Z,21.20
2018-09-04T06:54:02.397Z,21.50
2018-09-04T06:56:30.584Z,21.70
2018-09-04T06:58:58.663Z,22.10
2018-09-04T07:01:26.742Z,21.60
2018-09-04T07:03:54.835Z,21.10
2018-09-04T07:06:22.894Z,20.90
2018-09-04T07:08:51.022Z,21.30
2018-09-04T07:11:19.272Z,21.50
2018-09-04T07:13:47.386Z,21.80
2018-09-04T07:16:15.495Z,22.20
2018-09-04T07:18:43.630Z,22.40
2018-09-04T07:21:11.798Z,22.40
2018-09-04T07:23:39.931Z,22.50
2018-09-04T07:26:07.847Z,22.00
2018-09-04T07:28:35.926Z,22.20
2018-09-04T07:31:04.020Z,22.60
2018-09-04T07:33:32.146Z,23.10
2018-09-04T07:36:00.270Z,23.70
2018-09-04T07:38:29.197Z,23.60
2018-09-04T07:40:57.290Z,23.80
2018-09-04T07:43:25.405Z,23.90
2018-09-04T07:45:53.537Z,24.00
2018-09-04T07:48:21.611Z,24.20
2018-09-04T07:50:50.441Z,25.00
2018-09-04T07:53:18.552Z,25.20
2018-09-04T07:55:46.729Z,25.70
2018-09-04T07:58:14.805Z,25.80
2018-09-04T08:00:42.910Z,25.40
2018-09-04T08:03:11.041Z,26.20
2018-09-04T08:05:39.248Z,26.30
2018-09-04T08:08:07.419Z,26.40
2018-09-04T08:10:36.260Z,26.90
2018-09-04T08:13:06.227Z,27.00
2018-09-04T08:15:34.541Z,26.60
2018-09-04T08:18:02.657Z,26.20
2018-09-04T08:20:30.936Z,26.80
2018-09-04T08:22:58.939Z,26.80
2018-09-04T08:25:27.305Z,27.30
2018-09-04T08:27:55.482Z,27.70
2018-09-04T08:30:24.072Z,27.30
2018-09-04T08:32:52.232Z,27.10
2018-09-04T08:35:20.350Z,27.50
2018-09-04T08:37:48.535Z,27.70
2018-09-04T08:40:16.634Z,27.80
2018-09-04T08:42:44.760Z,28.00
2018-09-04T08:45:12.924Z,28.30
2018-09-04T08:47:41.127Z,28.10
2018-09-04T08:50:09.370Z,27.70
2018-09-04T08:52:37.559Z,27.70
2018-09-04T08:55:05.855Z,28.50
2018-09-04T08:57:33.995Z,28.70
2018-09-04T09:00:02.142Z,29.40
2018-09-04T09:02:30.285Z,30.40
2018-09-04T09:04:58.471Z,30.50
2018-09-04T09:07:26.595Z,30.40
2018-09-04T09:09:54.825Z,31.10
2018-09-04T09:12:22.930Z,31.20
2018-09-04T09:14:51.061Z,31.00
2018-09-04T09:17:19.207Z,30.80
2018-09-04T09:19:47.328Z,30.30
2018-09-04T09:22:15.423Z,31.20
2018-09-04T09:24:43.545Z,30.90
2018-09-04T09:27:12.307Z,31.80
2018-09-04T09:29:40.424Z,30.30
2018-09-04T09:32:08.596Z,31.20
2018-09-04T09:34:36.786Z,32.60
2018-09-04T09:37:04.954Z,32.70
2018-09-04T09:39:32.987Z,33.20
2018-09-04T09:42:01.077Z,34.50
2018-09-04T09:44:29.213Z,34.30
2018-09-04T09:47:01.534Z,35.10
2018-09-04T09:49:30.372Z,34.50
2018-09-04T09:51:58.485Z,34.60
2018-09-04T09:54:26.637Z,35.10
2018-09-04T09:56:54.750Z,35.00
2018-09-04T09:59:23.001Z,35.60
2018-09-04T10:01:53.011Z,34.40
2018-09-04T10:04:21.222Z,33.90
2018-09-04T10:06:49.395Z,34.70
2018-09-04T10:09:17.512Z,34.50
2018-09-04T10:11:45.666Z,33.50
2018-09-04T10:14:13.836Z,34.50
2018-09-04T10:16:41.965Z,35.50
2018-09-04T10:19:10.047Z,36.70
2018-09-04T10:21:38.223Z,36.30
2018-09-04T10:24:06.433Z,35.50
2018-09-04T10:26:34.653Z,37.20
2018-09-04T10:29:02.682Z,37.20
2018-09-04T10:31:30.809Z,37.30
2018-09-04T10:33:59.458Z,36.90
2018-09-04T10:36:27.556Z,36.50
2018-09-04T10:39:01.147Z,38.20
2018-09-04T10:41:29.386Z,37.20
2018-09-04T10:43:58.037Z,37.00
2018-09-04T10:46:26.478Z,36.70
2018-09-04T10:48:54.607Z,36.40
2018-09-04T10:51:22.768Z,35.50
2018-09-04T10:53:50.849Z,35.70
2018-09-04T10:56:19.028Z,36.90
2018-09-04T10:58:47.133Z,38.80
2018-09-04T11:01:15.295Z,38.30
2018-09-04T11:03:43.396Z,39.00
2018-09-04T11:06:11.506Z,38.20
2018-09-04T11:08:39.635Z,37.60
2018-09-04T11:11:07.761Z,38.30
2018-09-04T11:13:35.916Z,39.80
2018-09-04T11:16:04.034Z,41.40
2018-09-04T11:18:32.166Z,43.30
2018-09-04T11:21:00.300Z,44.00
2018-09-04T11:23:28.458Z,40.80
2018-09-04T11:25:56.538Z,35.80
2018-09-04T11:28:24.644Z,35.20
2018-09-04T11:30:52.752Z,33.90
2018-09-04T11:33:20.871Z,32.50
2018-09-04T11:35:49.071Z,32.20
2018-09-04T11:38:17.237Z,32.70
2018-09-04T11:40:45.424Z,34.40
2018-09-04T11:43:13.490Z,34.10
2018-09-04T11:45:41.608Z,33.10
2018-09-04T11:48:11.536Z,35.20
2018-09-04T11:50:39.717Z,39.10
2018-09-04T11:53:07.794Z,40.10
2018-09-04T11:55:35.940Z,37.90
2018-09-04T11:58:04.030Z,35.50
2018-09-04T12:00:35.421Z,33.10
2018-09-04T12:03:03.599Z,31.70
2018-09-04T12:05:31.666Z,34.60
2018-09-04T12:07:59.827Z,36.80
2018-09-04T12:10:27.977Z,37.60
2018-09-04T12:12:56.127Z,38.90
2018-09-04T12:15:24.194Z,40.10
2018-09-04T12:17:52.282Z,38.80
2018-09-04T12:20:54.355Z,35.10
2018-09-04T12:23:22.406Z,32.90
2018-09-04T12:25:52.882Z,31.60
2018-09-04T12:28:21.011Z,33.30
2018-09-04T12:30:49.237Z,35.50
2018-09-04T12:33:17.454Z,34.60
2018-09-04T12:35:45.554Z,36.60
2018-09-04T12:38:16.325Z,37.70
2018-09-04T12:40:45.179Z,37.90
2018-09-04T12:43:13.321Z,38.90
2018-09-04T12:45:46.887Z,37.10
2018-09-04T12:48:32.524Z,37.40
2018-09-04T12:51:01.814Z,38.30
2018-09-04T12:53:30.718Z,37.40
2018-09-04T12:55:58.866Z,34.80
2018-09-04T12:58:26.998Z,32.10
2018-09-04T13:00:55.909Z,30.20
2018-09-04T13:03:27.943Z,28.70
2018-09-04T13:05:56.006Z,28.00
2018-09-04T13:08:25.643Z,30.30
2018-09-04T13:10:53.729Z,33.40
2018-09-04T13:22:00.102Z,35.50
2018-09-04T13:24:28.273Z,33.20
2018-09-04T13:26:56.399Z,32.40
2018-09-04T13:29:24.519Z,32.30
2018-09-04T13:31:52.804Z,33.40
2018-09-04T13:34:21.440Z,32.70
2018-09-04T13:36:49.523Z,33.60
2018-09-04T13:39:17.717Z,35.10
2018-09-04T13:41:45.836Z,35.10
2018-09-04T13:44:14.004Z,34.70
2018-09-04T13:46:42.119Z,34.00
2018-09-04T13:49:10.234Z,33.80
2018-09-04T13:51:38.654Z,33.90
2018-09-04T13:54:06.854Z,33.90
2018-09-04T13:56:34.951Z,33.50
2018-09-04T13:59:03.204Z,33.40
2018-09-04T14:01:31.312Z,34.30
2018-09-04T14:03:59.411Z,33.20
2018-09-04T14:06:27.575Z,33.90
2018-09-04T14:08:55.658Z,34.60
2018-09-04T14:11:23.876Z,33.80
2018-09-04T14:13:51.948Z,33.50
2018-09-04T14:16:21.434Z,34.20
2018-09-04T14:18:50.048Z,33.70
2018-09-04T14:21:18.167Z,34.20
2018-09-04T14:23:46.373Z,34.60
2018-09-04T14:26:14.446Z,34.90
2018-09-04T14:28:42.507Z,34.30
2018-09-04T14:31:10.567Z,34.70
2018-09-04T14:34:10.457Z,34.70
2018-09-04T14:36:39.007Z,33.30
2018-09-04T14:39:07.266Z,32.80
2018-09-04T14:41:35.487Z,33.40
2018-09-04T14:44:03.575Z,32.90
2018-09-04T14:46:31.638Z,33.00
2018-09-04T14:48:59.714Z,32.60
2018-09-04T14:51:27.807Z,33.30
2018-09-04T14:53:55.911Z,33.20
2018-09-04T14:56:24.090Z,32.80
2018-09-04T14:58:52.159Z,31.40
2018-09-04T15:01:20.236Z,29.90
2018-09-04T15:03:48.307Z,28.50
2018-09-04T15:06:16.444Z,27.30
2018-09-04T15:08:44.528Z,26.70
2018-09-04T15:11:12.626Z,26.40
2018-09-04T15:13:40.703Z,26.10
2018-09-04T15:16:08.782Z,25.90
2018-09-04T15:18:36.879Z,25.80
2018-09-04T15:21:04.966Z,25.60
2018-09-04T15:23:33.030Z,25.60
2018-09-04T15:26:01.111Z,25.60
2018-09-04T15:28:29.219Z,25.70
2018-09-04T15:30:57.337Z,25.60
2018-09-04T15:33:25.411Z,25.40
2018-09-04T15:35:53.512Z,25.20
2018-09-04T15:38:21.582Z,25.10
2018-09-04T15:40:49.656Z,25.00
2018-09-04T15:43:17.722Z,25.00
2018-09-04T15:45:45.847Z,24.90
2018-09-04T15:48:13.918Z,24.90
2018-09-04T15:50:42.014Z,24.80
2018-09-04T15:53:10.103Z,24.80
2018-09-04T15:55:38.189Z,24.90
2018-09-04T15:58:06.254Z,24.80
2018-09-04T16:00:34.436Z,24.90
2018-09-04T16:03:02.514Z,24.80
2018-09-04T16:05:30.591Z,24.80
2018-09-04T16:07:58.704Z,24.70
2018-09-04T16:10:26.801Z,24.70
2018-09-04T16:12:54.899Z,24.70
2018-09-04T16:15:22.979Z,24.60
2018-09-04T16:17:51.067Z,24.50
2018-09-04T16:20:19.143Z,24.50
2018-09-04T16:22:47.248Z,24.40
2018-09-04T16:25:15.316Z,24.40
2018-09-04T16:27:43.473Z,24.30
2018-09-04T16:30:11.635Z,24.30
2018-09-04T16:32:39.688Z,24.20
2018-09-04T16:35:07.797Z,24.10
2018-09-04T16:37:35.914Z,24.00
2018-09-04T16:40:04.096Z,23.90
2018-09-04T16:42:32.224Z,23.80
2018-09-04T16:45:00.325Z,23.80
2018-09-04T16:47:28.864Z,23.70
2018-09-04T16:49:56.995Z,23.70
2018-09-04T16:52:25.763Z,23.70
2018-09-04T16:54:53.859Z,23.60
2018-09-04T16:57:21.998Z,23.50
2018-09-04T17:02:43.314Z,23.40
2018-09-04T17:05:11.381Z,23.30
2018-09-04T17:07:39.463Z,23.20
2018-09-04T17:10:07.565Z,23.00
2018-09-04T17:12:35.706Z,22.90
2018-09-04T17:15:03.786Z,22.70
2018-09-04T17:17:31.894Z,22.70
2018-09-04T17:19:59.964Z,22.60
2018-09-04T17:22:28.162Z,22.60
2018-09-04T17:24:56.293Z,22.60
2018-09-04T17:27:24.390Z,22.60
2018-09-04T17:29:52.474Z,22.60
2018-09-04T17:32:20.604Z,22.50
2018-09-04T17:34:48.672Z,22.30
2018-09-04T17:37:16.773Z,22.00
2018-09-04T17:39:44.861Z,21.80
2018-09-04T17:42:12.997Z,21.60
2018-09-04T17:44:41.070Z,21.50
2018-09-04T17:47:09.171Z,21.30
2018-09-04T17:49:37.246Z,21.10
2018-09-04T17:52:05.372Z,21.00
2018-09-04T17:54:33.460Z,20.90
2018-09-04T17:57:01.601Z,20.70
2018-09-04T17:59:29.697Z,20.50
2018-09-04T18:01:57.789Z,20.40
2018-09-04T18:04:25.874Z,20.30
2018-09-04T18:06:53.988Z,20.10
2018-09-04T18:09:22.099Z,20.00
2018-09-04T18:11:50.239Z,20.00
2018-09-04T18:14:18.301Z,19.90
2018-09-04T18:16:48.475Z,19.80
2018-09-04T18:19:16.647Z,19.60
2018-09-04T18:21:44.763Z,19.60
2018-09-04T18:24:12.889Z,19.60
2018-09-04T18:26:40.947Z,19.60
2018-09-04T18:29:09.031Z,19.60
2018-09-04T18:31:37.121Z,19.40
2018-09-04T18:34:06.377Z,19.30
2018-09-04T18:36:34.451Z,19.20
2018-09-04T18:39:02.570Z,19.10
2018-09-04T18:41:30.635Z,18.90
2018-09-04T18:43:58.711Z,18.80
2018-09-04T18:46:26.782Z,18.70
2018-09-04T18:48:56.012Z,18.60
2018-09-04T18:54:16.794Z,18.30
2018-09-04T18:56:44.853Z,18.30
2018-09-04T18:59:12.956Z,18.30
2018-09-04T19:01:41.189Z,18.40
2018-09-04T19:04:09.302Z,18.30
2018-09-04T19:06:37.409Z,18.30
2018-09-04T19:09:06.505Z,18.20
2018-09-04T19:11:34.625Z,18.20
2018-09-04T19:14:02.922Z,18.00
2018-09-04T19:16:30.995Z,18.00
2018-09-04T19:18:59.076Z,17.90
2018-09-04T19:21:27.261Z,17.90
2018-09-04T19:23:55.414Z,17.80
2018-09-04T19:26:23.496Z,17.90
2018-09-04T19:28:51.555Z,17.80
2018-09-04T19:31:19.596Z,17.70
2018-09-04T19:33:47.699Z,17.60
2018-09-04T19:36:15.791Z,17.60
2018-09-04T19:38:43.862Z,17.40
2018-09-04T19:41:11.920Z,17.40
2018-09-04T19:43:40.111Z,17.40
2018-09-04T19:46:08.195Z,17.30
2018-09-04T19:48:36.349Z,17.30
2018-09-04T19:51:04.482Z,17.30
2018-09-04T19:53:32.551Z,17.40
2018-09-04T19:56:00.624Z,17.30
2018-09-04T19:58:28.814Z,17.20
2018-09-04T20:00:56.893Z,17.30
2018-09-04T20:03:24.944Z,17.30
2018-09-04T20:05:53.104Z,17.30
2018-09-04T20:08:21.150Z,17.40
2018-09-04T20:10:49.195Z,17.40
2018-09-04T20:13:17.329Z,17.40
2018-09-04T20:15:45.314Z,17.30
2018-09-04T20:18:14.307Z,17.30
2018-09-04T20:20:42.390Z,17.20
2018-09-04T20:23:10.445Z,17.10
2018-09-04T20:25:38.503Z,17.10
2018-09-04T20:28:06.599Z,17.00
2018-09-04T20:30:35.307Z,16.90
2018-09-04T20:33:03.631Z,16.80
2018-09-04T20:35:31.724Z,16.70
2018-09-04T20:37:59.799Z,16.50
2018-09-04T20:40:27.997Z,16.30
2018-09-04T20:42:56.100Z,16.20
2018-09-04T20:45:25.222Z,16.10
2018-09-04T20:47:53.490Z,16.10
2018-09-04T20:50:21.558Z,16.10
2018-09-04T20:52:49.610Z,16.00
2018-09-04T20:55:17.738Z,15.90
2018-09-04T20:57:57.271Z,15.90
2018-09-04T21:00:36.904Z,15.80
2018-09-04T21:03:16.857Z,15.70
2018-09-04T21:05:56.477Z,15.50
2018-09-04T21:08:39.023Z,15.50
2018-09-04T21:11:07.982Z,15.50
2018-09-04T21:13:36.202Z,15.50
2018-09-04T21:16:04.440Z,15.50
2018-09-04T21:18:32.781Z,15.50
2018-09-04T21:21:00.903Z,15.30
2018-09-04T21:23:29.022Z,15.20
2018-09-04T21:25:57.127Z,15.00
2018-09-04T21:28:25.205Z,14.90
2018-09-04T21:30:53.382Z,14.90
2018-09-04T21:33:21.485Z,14.80
2018-09-04T21:35:49.581Z,14.80
2018-09-04T21:38:17.841Z,14.90
2018-09-04T21:40:45.924Z,14.90
2018-09-04T21:43:14.003Z,14.90
2018-09-04T21:45:42.095Z,14.90
2018-09-04T21:48:10.179Z,14.90
2018-09-04T21:50:38.326Z,14.80
2018-09-04T21:53:06.412Z,14.70
2018-09-04T21:55:34.516Z,14.60
2018-09-04T21:58:02.609Z,14.50
2018-09-04T22:00:30.686Z,14.40
2018-09-04T22:02:58.808Z,14.40
2018-09-04T22:05:27.575Z,14.30
2018-09-04T22:07:57.121Z,14.30
2018-09-04T22:10:25.953Z,14.40
2018-09-04T22:12:54.090Z,14.30
2018-09-04T22:15:22.489Z,14.30
2018-09-04T22:17:50.633Z,14.20
2018-09-04T22:20:18.712Z,14.20
2018-09-04T22:22:46.807Z,14.20
2018-09-04T22:25:14.886Z,14.10
2018-09-04T22:27:42.978Z,14.10
2018-09-04T22:30:11.090Z,14.10
2018-09-04T22:32:39.915Z,14.10
2018-09-04T22:35:08.010Z,14.10
2018-09-04T22:37:36.143Z,14.10
2018-09-04T22:40:04.277Z,14.20
2018-09-04T22:42:32.502Z,14.20
2018-09-04T22:45:00.577Z,14.10
2018-09-04T22:47:28.731Z,14.10
2018-09-04T22:50:02.372Z,14.10
2018-09-04T22:52:31.595Z,14.00
2018-09-04T22:55:01.887Z,13.90
2018-09-04T22:57:30.267Z,13.80
2018-09-04T22:59:58.353Z,13.70
2018-09-04T23:02:26.494Z,13.60
2018-09-04T23:04:55.260Z,13.60
2018-09-04T23:07:23.347Z,13.60
2018-09-04T23:09:51.441Z,13.50
2018-09-04T23:12:19.550Z,13.50
2018-09-04T23:14:47.671Z,13.60
2018-09-04T23:17:15.758Z,13.60
2018-09-04T23:19:43.855Z,13.60
2018-09-04T23:22:11.955Z,13.60
2018-09-04T23:24:40.044Z,13.60
2018-09-04T23:27:08.381Z,13.60
2018-09-04T23:29:36.979Z,13.70
2018-09-04T23:32:05.079Z,13.70
2018-09-04T23:34:33.159Z,13.60
2018-09-04T23:37:01.244Z,13.70
2018-09-04T23:39:29.417Z,13.60
2018-09-04T23:41:57.543Z,13.60
2018-09-04T23:44:25.646Z,13.50
2018-09-04T23:46:53.738Z,13.60
2018-09-04T23:49:21.832Z,13.50
2018-09-04T23:51:50.034Z,13.50
2018-09-04T23:54:18.130Z,13.60
2018-09-04T23:56:46.206Z,13.60
2018-09-04T23:59:14.310Z,13.60
